createdAt,value
2023-05-14T00:00:31.648Z,100218.17
2023-05-14T00:03:01.835Z,100220.57
2023-05-14T00:05:32.108Z,100218.38
2023-05-14T00:08:02.385Z,100220.91
2023-05-14T00:10:32.648Z,100219.92
2023-05-14T00:13:04.305Z,100218.10
2023-05-14T00:15:34.699Z,100223.53
2023-05-14T00:18:05.470Z,100223.52
2023-05-14T00:20:35.591Z,100221.95
2023-05-14T00:23:05.600Z,100227.50
2023-05-14T00:25:36.146Z,100229.85
2023-05-14T00:28:06.638Z,100226.02
2023-05-14T00:30:38.042Z,100228.70
2023-05-14T00:33:08.414Z,100227.33
2023-05-14T00:35:39.371Z,100229.70
2023-05-14T00:38:09.216Z,100224.83
2023-05-14T00:40:39.411Z,100224.53
2023-05-14T00:43:09.635Z,100229.83
2023-05-14T00:45:39.840Z,100230.66
2023-05-14T00:48:10.388Z,100233.82
2023-05-14T00:50:40.301Z,100233.55
2023-05-14T00:53:11.112Z,100237.00
2023-05-14T00:55:42.251Z,100232.34
2023-05-14T00:58:13.135Z,100232.45
2023-05-14T01:00:43.488Z,100235.04
2023-05-14T01:03:13.918Z,100235.66
2023-05-14T01:05:47.890Z,100239.55
2023-05-14T01:08:21.945Z,100241.55
2023-05-14T01:10:53.371Z,100243.10
2023-05-14T01:13:26.852Z,100247.94
2023-05-14T01:15:58.014Z,100252.71
2023-05-14T01:18:28.233Z,100256.27
2023-05-14T01:20:58.137Z,100266.35
2023-05-14T01:23:28.580Z,100268.08
2023-05-14T01:25:58.606Z,100260.00
2023-05-14T01:29:58.852Z,100269.42
2023-05-14T01:32:50.597Z,100265.72
2023-05-14T01:35:39.266Z,100271.59
2023-05-14T01:38:31.029Z,100269.85
2023-05-14T01:40:59.266Z,100263.17
2023-05-14T01:43:27.161Z,100263.79
2023-05-14T01:45:55.154Z,100257.73
2023-05-14T01:48:23.683Z,100258.19
2023-05-14T01:50:52.299Z,100255.77
2023-05-14T01:53:20.387Z,100252.33
2023-05-14T01:55:48.606Z,100248.72
2023-05-14T01:58:16.333Z,100246.73
2023-05-14T02:00:44.609Z,100249.22
2023-05-14T02:03:12.668Z,100243.81
2023-05-14T02:05:40.494Z,100242.83
2023-05-14T02:08:08.803Z,100240.02
2023-05-14T02:10:36.892Z,100238.39
2023-05-14T02:13:05.380Z,100233.91
2023-05-14T02:15:33.170Z,100232.97
2023-05-14T02:18:00.991Z,100231.64
2023-05-14T02:20:29.000Z,100231.39
2023-05-14T02:22:56.845Z,100231.63
2023-05-14T02:25:25.033Z,100233.36
2023-05-14T02:27:52.889Z,100228.34
2023-05-14T02:30:21.575Z,100225.27
2023-05-14T02:32:50.125Z,100218.93
2023-05-14T02:35:18.385Z,100219.15
2023-05-14T02:37:46.493Z,100217.96
2023-05-14T02:40:15.182Z,100219.02
2023-05-14T02:42:43.354Z,100221.50
2023-05-14T02:45:11.742Z,100217.81
2023-05-14T02:47:41.607Z,100219.71
2023-05-14T02:50:10.646Z,100224.58
2023-05-14T02:52:38.969Z,100223.84
2023-05-14T02:55:08.612Z,100219.35
2023-05-14T02:57:36.493Z,100218.05
2023-05-14T03:00:06.866Z,100215.96
2023-05-14T03:02:35.760Z,100213.61
2023-05-14T03:05:05.201Z,100213.65
2023-05-14T03:07:33.263Z,100214.52
2023-05-14T03:10:01.172Z,100208.15
2023-05-14T03:12:29.146Z,100207.85
2023-05-14T03:14:57.054Z,100209.47
2023-05-14T03:17:25.067Z,100212.65
2023-05-14T03:19:52.862Z,100213.08
2023-05-14T03:22:21.315Z,100215.36
2023-05-14T03:24:49.284Z,100219.40
2023-05-14T03:27:17.168Z,100222.30
2023-05-14T03:29:45.182Z,100226.11
2023-05-14T03:32:13.410Z,100225.61
2023-05-14T03:34:41.164Z,100228.64
2023-05-14T03:37:08.984Z,100230.92
2023-05-14T03:39:37.209Z,100232.18
2023-05-14T03:42:06.299Z,100234.36
2023-05-14T03:44:34.147Z,100236.93
2023-05-14T03:47:02.026Z,100237.33
2023-05-14T03:49:29.896Z,100240.84
2023-05-14T03:51:58.740Z,100241.02
2023-05-14T03:54:26.575Z,100243.96
2023-05-14T03:56:54.483Z,100251.14
2023-05-14T03:59:22.328Z,100260.45
2023-05-14T04:01:50.471Z,100260.54
2023-05-14T04:04:18.696Z,100255.12
2023-05-14T04:06:46.585Z,100259.10
2023-05-14T04:09:14.615Z,100261.45
2023-05-14T04:11:43.092Z,100258.69
2023-05-14T04:14:11.191Z,100254.17
2023-05-14T04:16:39.108Z,100254.55
2023-05-14T04:19:07.248Z,100251.55
2023-05-14T04:21:35.115Z,100250.89
2023-05-14T04:24:03.428Z,100254.48
2023-05-14T04:26:31.731Z,100255.12
2023-05-14T04:29:02.274Z,100251.14
2023-05-14T04:31:31.030Z,100253.00
2023-05-14T04:33:59.133Z,100248.66
2023-05-14T04:36:27.298Z,100250.53
2023-05-14T04:38:55.396Z,100251.30
2023-05-14T04:41:23.253Z,100249.28
2023-05-14T04:43:51.103Z,100245.02
2023-05-14T04:46:19.412Z,100251.14
2023-05-14T04:48:47.638Z,100244.73
2023-05-14T04:51:15.405Z,100245.39
2023-05-14T04:53:43.640Z,100248.04
2023-05-14T04:56:11.954Z,100252.83
2023-05-14T04:58:39.772Z,100247.35
2023-05-14T05:01:07.680Z,100249.04
2023-05-14T05:03:35.736Z,100245.08
2023-05-14T05:06:04.643Z,100242.04
2023-05-14T05:08:32.642Z,100241.94
2023-05-14T05:11:00.856Z,100243.12
2023-05-14T05:13:29.048Z,100240.52
2023-05-14T05:15:57.277Z,100240.71
2023-05-14T05:18:25.285Z,100240.61
2023-05-14T05:20:55.978Z,100232.89
2023-05-14T05:23:24.715Z,100237.77
2023-05-14T05:25:52.729Z,100242.49
2023-05-14T05:28:20.506Z,100238.38
2023-05-14T05:30:48.430Z,100241.66
2023-05-14T05:33:16.401Z,100240.34
2023-05-14T05:35:44.476Z,100244.14
2023-05-14T05:38:14.844Z,100245.23
2023-05-14T05:40:42.911Z,100238.84
2023-05-14T05:43:11.013Z,100238.73
2023-05-14T05:45:38.915Z,100240.55
2023-05-14T05:48:07.101Z,100240.16
2023-05-14T05:50:35.059Z,100237.77
2023-05-14T05:53:03.288Z,100238.55
2023-05-14T05:55:31.536Z,100240.89
2023-05-14T05:57:59.429Z,100236.73
2023-05-14T06:00:27.405Z,100235.08
2023-05-14T06:02:55.793Z,100240.33
2023-05-14T06:05:24.264Z,100244.97
2023-05-14T06:07:54.634Z,100241.27
2023-05-14T06:10:22.829Z,100243.80
2023-05-14T06:12:51.099Z,100238.92
2023-05-14T06:15:19.153Z,100240.27
2023-05-14T06:17:47.173Z,100244.70
2023-05-14T06:20:15.520Z,100241.91
2023-05-14T06:22:43.691Z,100247.25
2023-05-14T06:25:12.023Z,100240.92
2023-05-14T06:27:40.958Z,100241.92
2023-05-14T06:30:11.575Z,100237.94
2023-05-14T06:32:39.741Z,100241.80
2023-05-14T06:35:09.331Z,100241.05
2023-05-14T06:37:37.587Z,100239.20
2023-05-14T06:40:08.031Z,100238.42
2023-05-14T06:42:35.833Z,100236.52
2023-05-14T06:45:07.384Z,100232.69
2023-05-14T06:47:35.450Z,100232.84
2023-05-14T06:50:03.943Z,100230.84
2023-05-14T06:52:32.282Z,100233.44
2023-05-14T06:55:00.456Z,100232.30
2023-05-14T06:57:28.286Z,100236.49
2023-05-14T06:59:56.854Z,100234.66
2023-05-14T07:02:24.843Z,100232.35
2023-05-14T07:04:52.841Z,100231.42
2023-05-14T07:07:20.733Z,100233.31
2023-05-14T07:09:49.180Z,100231.23
2023-05-14T07:12:17.425Z,100232.45
2023-05-14T07:14:45.958Z,100231.66
2023-05-14T07:17:14.503Z,100233.77
2023-05-14T07:19:42.294Z,100231.98
2023-05-14T07:22:10.303Z,100229.71
2023-05-14T07:24:38.302Z,100229.25
2023-05-14T07:27:07.834Z,100229.13
2023-05-14T07:29:36.162Z,100223.67
2023-05-14T07:32:04.904Z,100217.41
2023-05-14T07:34:33.098Z,100216.77
2023-05-14T07:37:01.326Z,100216.98
2023-05-14T07:39:29.253Z,100213.39
2023-05-14T07:41:57.641Z,100213.35
2023-05-14T07:44:25.416Z,100209.93
2023-05-14T07:46:53.854Z,100211.29
2023-05-14T07:49:22.126Z,100211.35
2023-05-14T07:51:50.178Z,100211.94
2023-05-14T07:54:18.178Z,100210.88
2023-05-14T07:56:46.374Z,100210.61
2023-05-14T07:59:14.422Z,100211.27
2023-05-14T08:01:42.226Z,100207.92
2023-05-14T08:04:15.488Z,100209.49
2023-05-14T08:06:43.528Z,100205.22
2023-05-14T08:09:11.586Z,100206.05
2023-05-14T08:11:39.591Z,100201.73
2023-05-14T08:14:08.285Z,100199.83
2023-05-14T08:16:36.650Z,100198.73
2023-05-14T08:19:04.766Z,100197.08
2023-05-14T08:21:32.618Z,100197.08
2023-05-14T08:24:00.820Z,100196.56
2023-05-14T08:26:28.833Z,100194.90
2023-05-14T08:28:56.741Z,100195.52
2023-05-14T08:31:25.230Z,100190.33
2023-05-14T08:33:53.758Z,100190.04
2023-05-14T08:36:21.824Z,100189.91
2023-05-14T08:38:50.369Z,100187.77
2023-05-14T08:41:18.442Z,100184.77
2023-05-14T08:43:52.618Z,100187.19
2023-05-14T08:46:21.587Z,100183.98
2023-05-14T08:48:51.623Z,100179.36
2023-05-14T08:51:19.707Z,100178.51
2023-05-14T08:53:48.479Z,100176.95
2023-05-14T08:56:17.465Z,100170.00
2023-05-14T08:58:45.458Z,100165.98
2023-05-14T09:01:13.877Z,100163.72
2023-05-14T09:03:41.760Z,100160.36
2023-05-14T09:06:09.835Z,100159.30
2023-05-14T09:08:38.739Z,100154.61
2023-05-14T09:11:06.819Z,100150.09
2023-05-14T09:13:37.264Z,100146.55
2023-05-14T09:16:06.430Z,100143.78
2023-05-14T09:18:36.247Z,100145.98
2023-05-14T09:21:04.445Z,100143.38
2023-05-14T09:23:33.887Z,100143.34
2023-05-14T09:26:05.483Z,100143.84
2023-05-14T09:28:33.801Z,100138.88
2023-05-14T09:31:02.176Z,100133.58
2023-05-14T09:33:30.428Z,100132.04
2023-05-14T09:36:04.053Z,100132.93
2023-05-14T09:38:32.489Z,100130.54
2023-05-14T09:41:00.631Z,100130.68
2023-05-14T09:43:28.421Z,100123.92
2023-05-14T09:45:56.310Z,100121.40
2023-05-14T09:48:24.283Z,100121.34
2023-05-14T09:50:52.280Z,100122.41
2023-05-14T09:53:20.728Z,100121.39
2023-05-14T09:55:48.709Z,100112.27
2023-05-14T09:58:17.232Z,100106.04
2023-05-14T10:00:45.941Z,100107.91
2023-05-14T10:03:18.764Z,100112.17
2023-05-14T10:05:48.342Z,100110.52
2023-05-14T10:08:21.526Z,100109.44
2023-05-14T10:10:49.860Z,100102.30
2023-05-14T10:13:19.644Z,100101.34
2023-05-14T10:15:48.603Z,100100.11
2023-05-14T10:18:18.569Z,100094.80
2023-05-14T10:20:48.344Z,100093.90
2023-05-14T10:23:16.504Z,100088.58
2023-05-14T10:25:44.454Z,100089.30
2023-05-14T10:28:12.258Z,100087.54
2023-05-14T10:30:44.368Z,100086.80
2023-05-14T10:33:13.805Z,100087.10
2023-05-14T10:35:52.120Z,100098.44
2023-05-14T10:38:23.298Z,100094.79
2023-05-14T10:40:53.528Z,100097.64
2023-05-14T10:43:22.012Z,100092.14
2023-05-14T10:45:50.053Z,100093.41
2023-05-14T10:48:18.941Z,100088.40
2023-05-14T10:50:48.579Z,100091.48
2023-05-14T10:53:17.160Z,100090.35
2023-05-14T10:55:46.595Z,100087.54
2023-05-14T10:58:14.938Z,100089.00
2023-05-14T11:00:42.817Z,100083.20
2023-05-14T11:03:12.689Z,100083.25
2023-05-14T11:05:40.592Z,100073.48
2023-05-14T11:08:08.607Z,100071.11
2023-05-14T11:10:38.234Z,100073.35
2023-05-14T11:13:06.104Z,100074.96
2023-05-14T11:15:35.441Z,100071.56
2023-05-14T11:18:03.712Z,100075.35
2023-05-14T11:20:32.151Z,100070.61
2023-05-14T11:23:00.056Z,100069.23
2023-05-14T11:25:28.300Z,100072.48
2023-05-14T11:27:58.015Z,100069.15
2023-05-14T11:30:26.113Z,100068.23
2023-05-14T11:32:55.127Z,100066.39
2023-05-14T11:35:23.387Z,100060.44
2023-05-14T11:37:51.800Z,100060.98
2023-05-14T11:40:20.215Z,100058.79
2023-05-14T11:42:50.094Z,100059.51
2023-05-14T11:45:25.754Z,100054.35
2023-05-14T11:47:54.259Z,100055.80
2023-05-14T11:50:23.109Z,100055.97
2023-05-14T11:52:51.187Z,100054.48
2023-05-14T11:55:20.181Z,100051.11
2023-05-14T11:57:48.191Z,100053.17
2023-05-14T12:00:20.707Z,100056.55
2023-05-14T12:02:49.115Z,100054.36
2023-05-14T12:05:17.637Z,100051.91
2023-05-14T12:07:45.696Z,100051.19
2023-05-14T12:10:14.523Z,100050.05
2023-05-14T12:12:45.412Z,100046.02
2023-05-14T12:15:14.353Z,100044.98
2023-05-14T12:17:43.124Z,100042.27
2023-05-14T12:20:12.474Z,100045.00
2023-05-14T12:22:42.568Z,100044.78
2023-05-14T12:25:12.723Z,100041.49
2023-05-14T12:27:40.774Z,100040.04
2023-05-14T12:30:34.226Z,100039.46
2023-05-14T12:32:58.889Z,100034.95
2023-05-14T12:35:27.513Z,100037.25
2023-05-14T12:37:55.485Z,100035.84
2023-05-14T12:40:23.790Z,100031.33
2023-05-14T12:42:52.083Z,100029.27
2023-05-14T12:45:22.056Z,100025.73
2023-05-14T12:47:50.631Z,100025.95
2023-05-14T12:50:19.830Z,100026.30
2023-05-14T12:52:48.094Z,100023.75
2023-05-14T12:55:17.708Z,100022.21
2023-05-14T12:57:45.774Z,100021.73
2023-05-14T13:00:15.669Z,100019.64
2023-05-14T13:02:44.244Z,100023.36
2023-05-14T13:05:12.400Z,100016.65
2023-05-14T13:07:43.329Z,100016.02
2023-05-14T13:10:11.675Z,100019.05
2023-05-14T13:12:39.937Z,100013.88
2023-05-14T13:15:10.514Z,100012.05
2023-05-14T13:17:38.475Z,100010.15
2023-05-14T13:20:08.684Z,100008.45
2023-05-14T13:22:36.767Z,100007.67
2023-05-14T13:25:06.437Z,100007.54
2023-05-14T13:27:35.455Z,100006.82
2023-05-14T13:30:04.853Z,100010.38
2023-05-14T13:32:33.487Z,100008.61
2023-05-14T13:35:01.689Z,100009.42
2023-05-14T13:37:29.729Z,100008.38
2023-05-14T13:39:57.519Z,100009.55
2023-05-14T13:42:26.452Z,100006.91
2023-05-14T13:44:55.671Z,100004.95
2023-05-14T13:47:24.113Z,100005.16
2023-05-14T13:49:52.326Z,99999.36
2023-05-14T13:52:20.941Z,99998.04
2023-05-14T13:54:49.258Z,100000.48
2023-05-14T13:57:17.273Z,100000.58
2023-05-14T13:59:45.899Z,99995.91
2023-05-14T14:02:14.129Z,99997.28
2023-05-14T14:04:42.083Z,99995.58
2023-05-14T14:07:10.079Z,99992.71
2023-05-14T14:09:38.654Z,99993.16
2023-05-14T14:12:08.536Z,99986.98
2023-05-14T14:14:36.434Z,99984.48
2023-05-14T14:17:05.151Z,99983.70
2023-05-14T14:19:33.076Z,99983.98
2023-05-14T14:22:01.166Z,99980.88
2023-05-14T14:24:28.930Z,99977.36
2023-05-14T14:26:56.934Z,99980.79
2023-05-14T14:29:24.691Z,99977.90
2023-05-14T14:31:52.569Z,99975.19
2023-05-14T14:34:20.743Z,99972.63
2023-05-14T14:36:48.793Z,99971.59
2023-05-14T14:39:16.576Z,99970.25
2023-05-14T14:41:44.446Z,99968.89
2023-05-14T14:44:12.243Z,99970.60
2023-05-14T14:46:42.190Z,99976.47
2023-05-14T14:49:09.978Z,99975.31
2023-05-14T14:51:38.107Z,99970.38
2023-05-14T14:54:05.985Z,99974.77
2023-05-14T14:56:34.481Z,99972.33
2023-05-14T14:59:02.744Z,99972.15
2023-05-14T15:01:30.989Z,99968.98
2023-05-14T15:03:59.389Z,99968.30
2023-05-14T15:06:27.771Z,99969.77
2023-05-14T15:08:55.584Z,99966.48
2023-05-14T15:11:23.543Z,99962.30
2023-05-14T15:13:51.669Z,99960.13
2023-05-14T15:16:19.500Z,99960.79
2023-05-14T15:18:47.318Z,99954.44
2023-05-14T15:21:15.240Z,99952.43
2023-05-14T15:23:43.067Z,99952.63
2023-05-14T15:29:18.009Z,99948.68
2023-05-14T15:31:47.924Z,99948.38
2023-05-14T15:34:17.848Z,99944.01
2023-05-14T15:36:47.928Z,99944.08
2023-05-14T15:39:20.303Z,99938.85
2023-05-14T15:41:50.119Z,99936.12
2023-05-14T15:44:19.991Z,99940.04
2023-05-14T15:46:50.202Z,99935.11
2023-05-14T15:49:20.236Z,99936.69
2023-05-14T15:51:50.195Z,99934.49
2023-05-14T15:54:20.116Z,99932.17
2023-05-14T15:56:50.139Z,99926.59
2023-05-14T15:59:20.333Z,99919.67
2023-05-14T16:01:50.606Z,99919.49
2023-05-14T16:04:20.516Z,99924.66
2023-05-14T16:06:50.761Z,99921.70
2023-05-14T16:09:20.939Z,99923.52
2023-05-14T16:11:51.190Z,99924.31
2023-05-14T16:14:20.977Z,99924.02
2023-05-14T16:16:51.329Z,99921.69
2023-05-14T16:19:21.797Z,99922.60
2023-05-14T16:21:51.759Z,99918.05
2023-05-14T16:24:21.923Z,99920.04
2023-05-14T16:26:51.860Z,99921.44
2023-05-14T16:29:22.349Z,99919.88
2023-05-14T16:31:52.252Z,99918.30
2023-05-14T16:34:22.218Z,99916.77
2023-05-14T16:36:52.307Z,99912.99
2023-05-14T16:39:22.123Z,99914.51
2023-05-14T16:41:51.958Z,99913.81
2023-05-14T16:44:21.766Z,99913.83
2023-05-14T16:46:52.436Z,99913.70
2023-05-14T16:49:22.892Z,99916.04
2023-05-14T16:51:53.089Z,99917.02
2023-05-14T16:54:22.993Z,99919.45
2023-05-14T16:56:53.238Z,99915.76
2023-05-14T16:59:23.078Z,99919.80
2023-05-14T17:01:53.388Z,99918.52
2023-05-14T17:04:25.260Z,99919.61
2023-05-14T17:06:55.373Z,99918.11
2023-05-14T17:09:25.211Z,99915.67
2023-05-14T17:11:55.234Z,99920.23
2023-05-14T17:14:25.084Z,99914.13
2023-05-14T17:16:55.509Z,99915.44
2023-05-14T17:19:25.396Z,99916.79
2023-05-14T17:21:55.413Z,99914.90
2023-05-14T17:24:25.434Z,99918.45
2023-05-14T17:26:55.414Z,99915.94
2023-05-14T17:29:26.351Z,99916.33
2023-05-14T17:31:58.906Z,99924.94
2023-05-14T17:34:28.815Z,99925.20
2023-05-14T17:36:58.837Z,99928.62
2023-05-14T17:39:29.144Z,99932.20
2023-05-14T17:41:59.298Z,99932.67
2023-05-14T17:44:29.204Z,99933.80
2023-05-14T17:47:00.393Z,99935.84
2023-05-14T17:49:30.682Z,99938.98
2023-05-14T17:52:00.510Z,99939.70
2023-05-14T17:54:30.350Z,99938.67
2023-05-14T17:57:00.471Z,99937.89
2023-05-14T17:59:30.327Z,99941.09
2023-05-14T18:02:00.966Z,99947.00
2023-05-14T18:04:30.836Z,99943.58
2023-05-14T18:07:01.886Z,99945.95
2023-05-14T18:09:32.104Z,99945.40
2023-05-14T18:12:02.258Z,99947.71
2023-05-14T18:14:33.059Z,99949.91
2023-05-14T18:17:03.294Z,99951.23
2023-05-14T18:19:38.415Z,99949.30
2023-05-14T18:22:08.788Z,99951.69
2023-05-14T18:24:38.853Z,99951.27
2023-05-14T18:27:09.145Z,99951.89
2023-05-14T18:29:39.137Z,99950.58
2023-05-14T18:32:09.876Z,99951.32
2023-05-14T18:34:39.738Z,99949.98
2023-05-14T18:37:09.915Z,99950.39
2023-05-14T18:39:40.339Z,99951.88
2023-05-14T18:42:10.833Z,99944.50
2023-05-14T18:44:44.198Z,99944.34
2023-05-14T18:47:14.339Z,99945.48
2023-05-14T18:49:44.188Z,99944.69
2023-05-14T18:52:14.132Z,99941.38
2023-05-14T18:54:44.072Z,99939.20
2023-05-14T18:57:14.077Z,99934.80
2023-05-14T18:59:43.980Z,99941.22
2023-05-14T19:02:14.001Z,99944.86
2023-05-14T19:04:52.421Z,99946.70
2023-05-14T19:07:23.175Z,99946.52
2023-05-14T19:09:53.153Z,99950.80
2023-05-14T19:12:22.996Z,99949.76
2023-05-14T19:14:52.800Z,99947.20
2023-05-14T19:17:22.832Z,99945.51
2023-05-14T19:19:54.933Z,99948.61
2023-05-14T19:22:29.772Z,99948.52
2023-05-14T19:25:02.051Z,99944.84
2023-05-14T19:27:33.576Z,99947.80
2023-05-14T19:30:03.850Z,99948.05
2023-05-14T19:32:39.418Z,99941.77
2023-05-14T19:35:11.548Z,99943.66
2023-05-14T19:37:44.414Z,99943.23
2023-05-14T19:40:14.832Z,99945.96
2023-05-14T19:42:49.303Z,99947.11
2023-05-14T19:45:19.418Z,99944.85
2023-05-14T19:47:49.455Z,99943.69
2023-05-14T19:50:19.770Z,99942.42
2023-05-14T19:52:51.387Z,99942.36
2023-05-14T19:55:22.399Z,99942.45
2023-05-14T19:57:53.039Z,99944.11
2023-05-14T20:00:23.867Z,99942.03
2023-05-14T20:02:55.351Z,99945.08
2023-05-14T20:05:25.915Z,99935.54
2023-05-14T20:07:55.833Z,99935.83
2023-05-14T20:10:26.154Z,99935.42
2023-05-14T20:12:56.324Z,99934.26
2023-05-14T20:15:26.243Z,99935.39
2023-05-14T20:17:56.673Z,99934.69
2023-05-14T20:20:27.918Z,99936.14
2023-05-14T20:22:59.920Z,99933.09
2023-05-14T20:25:30.428Z,99929.05
2023-05-14T20:28:00.705Z,99928.35
2023-05-14T20:30:31.113Z,99925.36
2023-05-14T20:33:01.369Z,99924.73
2023-05-14T20:35:31.560Z,99918.91
2023-05-14T20:38:03.519Z,99921.33
2023-05-14T20:40:33.685Z,99923.08
2023-05-14T20:43:04.003Z,99922.60
2023-05-14T20:45:33.968Z,99922.08
2023-05-14T20:48:09.843Z,99920.89
2023-05-14T20:50:40.354Z,99920.78
2023-05-14T20:53:10.208Z,99923.69
2023-05-14T20:55:41.396Z,99924.41
2023-05-14T20:58:11.642Z,99926.30
2023-05-14T21:00:41.667Z,99937.73
2023-05-14T21:03:12.171Z,99939.73
2023-05-14T21:05:43.751Z,99934.77
2023-05-14T21:08:13.908Z,99928.30
2023-05-14T21:10:43.973Z,99932.27
2023-05-14T21:13:13.950Z,99930.92
2023-05-14T21:15:43.788Z,99930.09
2023-05-14T21:18:14.154Z,99921.85
2023-05-14T21:20:44.028Z,99928.30
2023-05-14T21:23:14.725Z,99925.43
2023-05-14T21:25:44.839Z,99924.42
2023-05-14T21:28:15.066Z,99921.20
2023-05-14T21:30:44.917Z,99920.95
2023-05-14T21:33:15.982Z,99920.63
2023-05-14T21:35:46.033Z,99919.27
2023-05-14T21:38:16.047Z,99915.64
2023-05-14T21:40:46.246Z,99914.66
2023-05-14T21:43:16.321Z,99917.09
2023-05-14T21:45:47.316Z,99915.10
2023-05-14T21:48:17.401Z,99913.54
2023-05-14T21:50:47.623Z,99913.02
2023-05-14T21:53:17.880Z,99914.80
2023-05-14T21:55:47.987Z,99909.29
2023-05-14T21:58:18.825Z,99910.55
2023-05-14T22:00:48.656Z,99908.31
2023-05-14T22:03:18.782Z,99907.09
2023-05-14T22:05:49.364Z,99911.05
2023-05-14T22:08:19.836Z,99910.39
2023-05-14T22:10:49.700Z,99907.48
2023-05-14T22:13:19.553Z,99903.61
2023-05-14T22:15:55.424Z,99899.83
2023-05-14T22:18:32.225Z,99898.81
2023-05-14T22:21:02.279Z,99892.43
2023-05-14T22:23:32.645Z,99894.79
2023-05-14T22:26:02.574Z,99887.48
2023-05-14T22:28:32.553Z,99888.23
2023-05-14T22:31:04.197Z,99890.02
2023-05-14T22:33:34.470Z,99885.25
2023-05-14T22:36:06.963Z,99886.61
2023-05-14T22:38:37.347Z,99886.88
2023-05-14T22:41:07.181Z,99887.59
2023-05-14T22:43:37.187Z,99886.91
2023-05-14T22:46:07.476Z,99889.27
2023-05-14T22:48:37.430Z,99887.55
2023-05-14T22:51:07.631Z,99885.60
2023-05-14T22:53:37.846Z,99885.42
2023-05-14T22:56:08.336Z,99883.84
2023-05-14T22:58:38.300Z,99879.75
2023-05-14T23:01:08.230Z,99874.70
2023-05-14T23:03:38.731Z,99874.98
2023-05-14T23:06:09.076Z,99869.19
2023-05-14T23:08:39.220Z,99872.48
2023-05-14T23:11:09.117Z,99867.76
2023-05-14T23:13:39.191Z,99873.40
2023-05-14T23:16:09.127Z,99869.63
2023-05-14T23:18:39.495Z,99868.33
2023-05-14T23:21:09.965Z,99872.99
2023-05-14T23:23:39.850Z,99871.81
2023-05-14T23:26:09.852Z,99876.02
2023-05-14T23:28:39.747Z,99874.42
2023-05-14T23:31:09.961Z,99874.09
2023-05-14T23:33:40.241Z,99870.23
2023-05-14T23:36:11.073Z,99871.08
2023-05-14T23:38:41.426Z,99871.91
2023-05-14T23:41:11.427Z,99870.61
2023-05-14T23:43:41.389Z,99871.49
2023-05-14T23:46:11.427Z,99871.41
2023-05-14T23:48:41.325Z,99874.20
2023-05-14T23:51:11.158Z,99877.65
2023-05-14T23:53:41.040Z,99874.81
2023-05-14T23:56:11.018Z,99872.11
2023-05-14T23:58:40.879Z,99869.33
